createdAt,value
2023-04-11T00:01:50.322Z,43.56
2023-04-11T00:06:52.422Z,43.42
2023-04-11T00:11:54.506Z,43.55
2023-04-11T00:16:56.844Z,43.59
2023-04-11T00:21:59.009Z,43.26
2023-04-11T00:27:01.768Z,43.45
2023-04-11T00:32:04.771Z,43.46
2023-04-11T00:37:07.286Z,43.55
2023-04-11T00:42:09.474Z,43.56
2023-04-11T00:47:11.965Z,43.46
2023-04-11T00:52:14.030Z,43.30
2023-04-11T00:57:16.346Z,43.17
2023-04-11T01:02:19.394Z,43.11
2023-04-11T01:07:23.742Z,43.06
2023-04-11T01:12:26.132Z,43.37
2023-04-11T01:17:28.248Z,43.03
2023-04-11T01:22:31.041Z,43.33
2023-04-11T01:27:34.574Z,43.00
2023-04-11T01:32:36.522Z,43.23
2023-04-11T01:37:39.222Z,43.11
2023-04-11T01:42:41.241Z,43.06
2023-04-11T01:47:43.328Z,43.24
2023-04-11T01:52:45.293Z,43.39
2023-04-11T01:57:47.244Z,43.29
2023-04-11T02:02:49.390Z,43.21
2023-04-11T02:07:51.255Z,43.15
2023-04-11T02:12:53.169Z,43.02
2023-04-11T02:17:55.510Z,43.11
2023-04-11T02:22:59.104Z,43.06
2023-04-11T02:28:01.301Z,43.00
2023-04-11T02:33:04.460Z,43.01
2023-04-11T02:38:06.540Z,42.96
2023-04-11T02:43:08.691Z,43.03
2023-04-11T02:48:10.889Z,42.95
2023-04-11T02:53:13.202Z,43.13
2023-04-11T02:58:18.293Z,42.81
2023-04-11T03:03:20.454Z,43.02
2023-04-11T03:08:23.251Z,43.13
2023-04-11T03:13:26.557Z,42.72
2023-04-11T03:18:28.533Z,43.09
2023-04-11T03:23:32.301Z,43.03
2023-04-11T03:28:34.384Z,42.85
2023-04-11T03:33:36.216Z,42.83
2023-04-11T03:38:38.323Z,43.06
2023-04-11T03:43:40.205Z,42.84
2023-04-11T03:48:42.107Z,42.95
2023-04-11T03:53:44.100Z,42.96
2023-04-11T03:58:46.072Z,42.98
2023-04-11T04:03:48.324Z,43.06
2023-04-11T04:08:50.575Z,42.75
2023-04-11T04:13:52.542Z,42.74
2023-04-11T04:18:54.502Z,42.59
2023-04-11T04:23:56.575Z,42.94
2023-04-11T04:29:04.950Z,42.76
2023-04-11T04:34:10.775Z,42.79
2023-04-11T04:39:19.605Z,42.56
2023-04-11T04:44:21.789Z,42.96
2023-04-11T04:49:23.813Z,42.62
2023-04-11T04:54:25.788Z,42.80
2023-04-11T04:59:28.415Z,42.75
2023-04-11T05:04:30.723Z,42.48
2023-04-11T05:09:33.008Z,42.56
2023-04-11T05:14:35.378Z,42.55
2023-04-11T05:19:37.498Z,42.33
2023-04-11T05:24:39.426Z,42.65
2023-04-11T05:29:41.663Z,42.62
2023-04-11T05:34:59.019Z,42.58
2023-04-11T05:40:01.341Z,42.66
2023-04-11T05:45:03.351Z,42.33
2023-04-11T05:50:06.384Z,42.60
2023-04-11T05:55:08.578Z,42.49
2023-04-11T06:00:14.738Z,42.58
2023-04-11T06:05:18.215Z,42.77
2023-04-11T06:10:20.347Z,42.22
2023-04-11T06:15:23.806Z,43.68
2023-04-11T06:20:26.150Z,43.53
2023-04-11T06:25:28.272Z,42.92
2023-04-11T06:30:30.374Z,42.62
2023-04-11T06:35:32.416Z,42.54
2023-04-11T06:40:34.931Z,42.44
2023-04-11T06:45:37.049Z,41.82
2023-04-11T06:50:42.327Z,41.44
2023-04-11T06:55:48.317Z,41.21
2023-04-11T07:00:50.236Z,41.03
2023-04-11T07:05:53.364Z,40.48
2023-04-11T07:10:55.507Z,40.17
2023-04-11T07:15:57.629Z,40.29
2023-04-11T07:20:59.541Z,39.94
2023-04-11T07:26:02.020Z,39.89
2023-04-11T07:31:06.368Z,40.40
2023-04-11T07:36:08.896Z,40.62
2023-04-11T07:41:11.217Z,40.73
2023-04-11T07:46:15.552Z,40.78
2023-04-11T07:51:18.051Z,40.28
2023-04-11T07:56:20.229Z,40.45
2023-04-11T08:01:27.221Z,40.34
2023-04-11T08:06:29.457Z,40.34
2023-04-11T08:11:32.332Z,40.03
2023-04-11T08:16:35.297Z,40.77
2023-04-11T08:21:37.674Z,40.72
2023-04-11T08:26:39.756Z,40.40
2023-04-11T08:31:45.299Z,40.62
2023-04-11T08:36:47.415Z,40.17
2023-04-11T08:41:49.619Z,40.04
2023-04-11T08:46:52.244Z,40.47
2023-04-11T08:51:55.132Z,40.27
2023-04-11T08:56:57.164Z,40.26
2023-04-11T09:02:17.547Z,39.85
2023-04-11T09:07:19.756Z,39.68
2023-04-11T09:12:29.913Z,39.47
2023-04-11T09:17:42.507Z,39.36
2023-04-11T09:22:45.032Z,39.93
2023-04-11T09:27:47.808Z,39.30
2023-04-11T09:32:53.441Z,39.01
2023-04-11T09:37:57.682Z,39.00
2023-04-11T09:43:01.835Z,38.92
2023-04-11T09:48:04.231Z,38.47
2023-04-11T09:53:11.199Z,38.36
2023-04-11T09:58:13.683Z,38.57
2023-04-11T10:03:17.007Z,37.87
2023-04-11T10:08:33.158Z,38.27
2023-04-11T10:13:45.875Z,37.92
2023-04-11T10:18:53.520Z,38.00
2023-04-11T10:24:17.203Z,37.85
2023-04-11T10:29:29.133Z,37.89
2023-04-11T10:34:32.437Z,37.46
2023-04-11T10:39:55.353Z,37.18
2023-04-11T10:45:25.887Z,37.17
2023-04-11T10:50:27.819Z,37.30
2023-04-11T10:55:33.646Z,37.21
2023-04-11T11:00:50.860Z,36.92
2023-04-11T11:06:03.309Z,37.08
2023-04-11T11:11:07.231Z,37.09
2023-04-11T11:16:13.682Z,37.21
2023-04-11T11:21:27.330Z,37.03
2023-04-11T11:26:41.100Z,37.05
2023-04-11T11:31:45.964Z,36.96
2023-04-11T11:36:48.125Z,37.13
2023-04-11T11:41:51.622Z,37.16
2023-04-11T11:47:15.801Z,37.11
2023-04-11T11:52:36.995Z,37.15
2023-04-11T11:57:46.049Z,37.06
2023-04-11T12:02:48.563Z,37.15
2023-04-11T12:07:59.670Z,37.25
2023-04-11T12:13:01.550Z,37.02
2023-04-11T12:18:06.402Z,37.11
2023-04-11T12:23:08.604Z,37.15
2023-04-11T12:28:11.401Z,36.87
2023-04-11T12:33:13.538Z,36.89
2023-04-11T12:38:17.831Z,36.64
2023-04-11T12:43:20.332Z,36.68
2023-04-11T12:48:22.394Z,36.72
2023-04-11T12:53:25.166Z,36.41
2023-04-11T12:58:29.298Z,36.50
2023-04-11T13:03:34.234Z,36.74
2023-04-11T13:08:36.968Z,36.55
2023-04-11T13:13:39.019Z,36.28
2023-04-11T13:18:41.705Z,36.40
2023-04-11T13:23:43.885Z,36.23
2023-04-11T13:28:46.982Z,36.46
2023-04-11T13:33:49.061Z,36.52
2023-04-11T13:38:54.090Z,36.54
2023-04-11T13:43:56.366Z,36.47
2023-04-11T13:48:58.947Z,36.65
2023-04-11T13:54:01.325Z,36.46
2023-04-11T13:59:03.656Z,36.42
2023-04-11T14:04:06.171Z,36.74
2023-04-11T14:09:09.130Z,36.59
2023-04-11T14:14:11.092Z,36.64
2023-04-11T14:19:13.152Z,36.98
2023-04-11T14:24:15.539Z,36.96
2023-04-11T14:29:18.830Z,36.99
2023-04-11T14:34:22.005Z,37.01
2023-04-11T14:39:24.358Z,36.85
2023-04-11T14:44:27.976Z,36.78
2023-04-11T14:49:31.129Z,36.64
2023-04-11T14:54:33.395Z,36.70
2023-04-11T14:59:36.002Z,36.98
2023-04-11T15:04:37.916Z,36.68
2023-04-11T15:09:40.216Z,37.02
2023-04-11T15:14:42.479Z,36.75
2023-04-11T15:19:44.338Z,37.02
2023-04-11T15:24:46.707Z,36.79
2023-04-11T15:29:48.639Z,37.13
2023-04-11T15:34:51.876Z,37.21
2023-04-11T15:39:54.720Z,37.05
2023-04-11T15:44:57.104Z,37.03
2023-04-11T15:50:02.283Z,37.17
2023-04-11T15:55:05.193Z,37.12
2023-04-11T16:00:10.510Z,37.21
2023-04-11T16:05:13.649Z,37.15
2023-04-11T16:10:16.361Z,36.54
2023-04-11T16:15:19.510Z,36.76
2023-04-11T16:20:21.965Z,36.85
2023-04-11T16:25:23.926Z,36.58
2023-04-11T16:30:28.089Z,36.99
2023-04-11T16:35:30.236Z,36.69
2023-04-11T16:40:33.695Z,36.85
2023-04-11T16:45:35.965Z,36.83
2023-04-11T16:50:38.888Z,36.67
2023-04-11T16:55:41.111Z,36.57
2023-04-11T17:00:43.626Z,36.84
2023-04-11T17:05:46.329Z,36.60
2023-04-11T17:10:48.743Z,36.67
2023-04-11T17:15:50.716Z,37.58
2023-04-11T17:20:52.992Z,37.53
2023-04-11T17:25:56.114Z,37.70
2023-04-11T17:30:58.728Z,37.57
2023-04-11T17:36:01.048Z,38.30
2023-04-11T17:41:13.860Z,38.26
2023-04-11T17:46:17.440Z,37.83
2023-04-11T17:51:19.540Z,37.89
2023-04-11T17:56:21.577Z,37.55
2023-04-11T18:01:25.008Z,37.67
2023-04-11T18:06:29.973Z,37.31
2023-04-11T18:11:31.891Z,38.07
2023-04-11T18:16:33.916Z,38.21
2023-04-11T18:21:36.214Z,38.62
2023-04-11T18:26:38.084Z,38.85
2023-04-11T18:31:40.023Z,39.21
2023-04-11T18:36:42.748Z,39.41
2023-04-11T18:41:45.957Z,38.91
2023-04-11T18:46:50.149Z,39.17
2023-04-11T18:51:53.571Z,39.11
2023-04-11T18:56:56.768Z,38.93
2023-04-11T19:02:00.224Z,38.94
2023-04-11T19:07:02.490Z,39.04
2023-04-11T19:12:04.724Z,38.98
2023-04-11T19:17:06.789Z,39.19
2023-04-11T19:22:08.587Z,39.14
2023-04-11T19:27:10.610Z,39.27
2023-04-11T19:32:12.992Z,38.92
2023-04-11T19:37:16.875Z,39.10
2023-04-11T19:42:19.660Z,38.99
2023-04-11T19:47:21.684Z,39.21
2023-04-11T19:52:24.032Z,38.92
2023-04-11T19:57:27.851Z,39.20
2023-04-11T20:02:30.273Z,39.50
2023-04-11T20:07:32.920Z,39.19
2023-04-11T20:12:35.344Z,39.58
2023-04-11T20:17:37.721Z,39.38
2023-04-11T20:22:40.827Z,39.72
2023-04-11T20:27:43.204Z,39.25
2023-04-11T20:32:45.806Z,39.63
2023-04-11T20:37:50.393Z,39.39
2023-04-11T20:42:52.726Z,39.40
2023-04-11T20:47:55.767Z,39.70
2023-04-11T20:52:57.666Z,39.57
2023-04-11T20:57:59.738Z,39.73
2023-04-11T21:03:01.927Z,44.29
2023-04-11T21:08:06.976Z,42.67
2023-04-11T21:13:09.064Z,42.82
2023-04-11T21:18:11.025Z,42.73
2023-04-11T21:23:12.960Z,42.48
2023-04-11T21:28:15.688Z,42.59
2023-04-11T21:33:17.751Z,42.37
2023-04-11T21:38:19.878Z,42.28
2023-04-11T21:43:21.814Z,42.29
2023-04-11T21:48:23.922Z,41.97
2023-04-11T21:53:26.047Z,41.96
2023-04-11T21:58:29.804Z,41.81
2023-04-11T22:03:32.886Z,41.57
2023-04-11T22:08:38.647Z,41.63
2023-04-11T22:13:40.754Z,41.63
2023-04-11T22:18:49.354Z,41.52
2023-04-11T22:23:56.375Z,41.64
2023-04-11T22:28:59.994Z,41.42
2023-04-11T22:34:02.944Z,41.66
2023-04-11T22:39:08.604Z,41.52
2023-04-11T22:44:10.675Z,41.37
2023-04-11T22:49:12.886Z,41.43
2023-04-11T22:54:15.971Z,41.42
2023-04-11T22:59:18.129Z,41.12
2023-04-11T23:04:21.191Z,41.33
2023-04-11T23:09:23.267Z,41.36
2023-04-11T23:14:31.565Z,41.23
2023-04-11T23:19:34.453Z,41.50
2023-04-11T23:24:36.511Z,41.36
2023-04-11T23:29:39.498Z,41.62
2023-04-11T23:34:42.027Z,41.26
2023-04-11T23:39:44.103Z,41.38
2023-04-11T23:44:46.184Z,41.42
2023-04-11T23:49:48.340Z,41.11
2023-04-11T23:54:51.109Z,41.26
2023-04-11T23:59:54.158Z,41.46
